createdAt,value
2022-12-15T00:01:59.216Z,20.23
2022-12-15T00:04:44.306Z,20.73
2022-12-15T00:07:29.737Z,19.30
2022-12-15T00:10:14.909Z,21.83
2022-12-15T00:13:00.255Z,26.97
2022-12-15T00:15:45.744Z,17.30
2022-12-15T00:18:30.808Z,19.63
2022-12-15T00:21:17.335Z,21.33
2022-12-15T00:24:02.542Z,17.50
2022-12-15T00:26:47.974Z,21.97
2022-12-15T00:29:33.407Z,22.20
2022-12-15T00:32:18.711Z,20.37
2022-12-15T00:35:04.204Z,17.00
2022-12-15T00:37:49.746Z,27.17
2022-12-15T00:40:16.613Z,22.30
2022-12-15T00:42:43.246Z,20.20
2022-12-15T00:45:10.475Z,18.43
2022-12-15T00:47:37.253Z,18.20
2022-12-15T00:50:23.388Z,20.60
2022-12-15T00:53:08.655Z,20.73
2022-12-15T00:55:54.146Z,17.97
2022-12-15T00:58:39.502Z,18.03
2022-12-15T01:01:28.020Z,20.23
2022-12-15T01:04:13.897Z,18.90
2022-12-15T01:06:59.263Z,18.67
2022-12-15T01:09:44.654Z,17.67
2022-12-15T01:12:30.217Z,19.17
2022-12-15T01:15:15.595Z,18.33
2022-12-15T01:18:00.918Z,18.90
2022-12-15T01:20:27.666Z,19.80
2022-12-15T01:22:55.370Z,21.40
2022-12-15T01:25:24.132Z,18.43
2022-12-15T01:27:51.160Z,20.87
2022-12-15T01:30:22.334Z,21.50
2022-12-15T01:32:49.464Z,20.17
2022-12-15T01:35:17.575Z,21.67
2022-12-15T01:37:45.180Z,19.30
2022-12-15T01:40:44.471Z,20.37
2022-12-15T01:43:24.338Z,19.57
2022-12-15T01:45:50.977Z,19.47
2022-12-15T01:48:37.913Z,23.83
2022-12-15T01:51:31.957Z,18.43
2022-12-15T01:54:07.383Z,20.33
2022-12-15T01:56:54.049Z,19.00
2022-12-15T01:59:31.457Z,20.73
2022-12-15T02:01:58.524Z,18.00
2022-12-15T02:04:25.673Z,19.03
2022-12-15T02:06:53.028Z,17.47
2022-12-15T02:09:21.564Z,18.00
2022-12-15T02:12:25.734Z,21.90
2022-12-15T02:15:09.332Z,21.57
2022-12-15T02:17:50.811Z,20.67
2022-12-15T02:20:43.953Z,18.80
2022-12-15T02:23:38.175Z,19.03
2022-12-15T02:26:07.954Z,21.53
2022-12-15T02:29:01.484Z,17.23
2022-12-15T02:31:49.818Z,22.63
2022-12-15T02:34:47.918Z,21.13
2022-12-15T02:37:32.809Z,20.80
2022-12-15T02:39:59.531Z,16.07
2022-12-15T02:42:28.431Z,20.17
2022-12-15T02:44:58.460Z,20.27
2022-12-15T02:48:02.085Z,18.43
2022-12-15T02:50:50.204Z,18.00
2022-12-15T02:54:03.300Z,20.93
2022-12-15T02:56:34.504Z,19.73
2022-12-15T02:59:13.319Z,19.13
2022-12-15T03:01:59.570Z,25.00
2022-12-15T03:04:27.414Z,18.48
2022-12-15T03:07:01.291Z,19.27
2022-12-15T03:09:28.569Z,17.57
2022-12-15T03:11:55.234Z,20.27
2022-12-15T03:14:22.059Z,18.13
2022-12-15T03:16:48.793Z,17.08
2022-12-15T03:19:15.508Z,18.50
2022-12-15T03:21:42.202Z,17.33
2022-12-15T03:24:09.108Z,22.43
2022-12-15T03:26:36.113Z,17.57
2022-12-15T03:29:03.035Z,16.50
2022-12-15T03:31:30.019Z,17.07
2022-12-15T03:33:57.280Z,19.37
2022-12-15T03:36:23.929Z,17.93
2022-12-15T03:38:50.578Z,19.35
2022-12-15T03:41:20.006Z,21.38
2022-12-15T03:43:46.676Z,23.63
2022-12-15T03:46:16.683Z,20.97
2022-12-15T03:48:43.581Z,22.65
2022-12-15T03:51:10.520Z,21.75
2022-12-15T03:53:37.247Z,18.25
2022-12-15T03:56:04.046Z,18.02
2022-12-15T03:58:30.781Z,21.75
2022-12-15T04:00:57.541Z,20.45
2022-12-15T04:03:24.498Z,20.52
2022-12-15T04:05:51.421Z,18.35
2022-12-15T04:08:18.132Z,18.67
2022-12-15T04:10:44.820Z,20.50
2022-12-15T04:13:12.056Z,17.93
2022-12-15T04:15:39.933Z,21.50
2022-12-15T04:18:12.442Z,18.75
2022-12-15T04:20:40.486Z,21.05
2022-12-15T04:23:07.850Z,20.05
2022-12-15T04:25:53.732Z,18.35
2022-12-15T04:28:39.619Z,21.38
2022-12-15T04:31:40.445Z,19.83
2022-12-15T04:34:37.495Z,22.77
2022-12-15T04:37:29.018Z,21.17
2022-12-15T04:40:14.721Z,23.55
2022-12-15T04:43:03.722Z,22.05
2022-12-15T04:45:49.275Z,19.02
2022-12-15T04:48:34.518Z,23.58
2022-12-15T04:51:20.026Z,22.55
2022-12-15T04:54:05.623Z,27.83
2022-12-15T04:56:51.118Z,28.42
2022-12-15T04:59:36.527Z,24.17
2022-12-15T05:02:22.078Z,19.20
2022-12-15T05:05:07.432Z,17.05
2022-12-15T05:07:52.946Z,19.13
2022-12-15T05:10:38.378Z,18.48
2022-12-15T05:13:27.609Z,19.77
2022-12-15T05:16:13.142Z,17.77
2022-12-15T05:18:58.323Z,20.90
2022-12-15T05:21:43.915Z,18.75
2022-12-15T05:24:29.323Z,20.95
2022-12-15T05:27:14.636Z,19.42
2022-12-15T05:30:00.245Z,17.80
2022-12-15T05:32:26.928Z,21.40
2022-12-15T05:34:53.652Z,24.83
2022-12-15T05:37:20.370Z,19.50
2022-12-15T05:39:47.061Z,19.20
2022-12-15T05:42:13.693Z,21.48
2022-12-15T05:44:40.720Z,18.52
2022-12-15T05:47:09.115Z,21.50
2022-12-15T05:49:35.782Z,24.92
2022-12-15T05:52:02.836Z,24.25
2022-12-15T05:54:29.653Z,22.15
2022-12-15T05:56:56.338Z,27.23
2022-12-15T05:59:23.031Z,30.15
2022-12-15T06:01:49.801Z,33.38
2022-12-15T06:04:16.628Z,26.00
2022-12-15T06:06:43.305Z,27.60
2022-12-15T06:09:10.499Z,25.23
2022-12-15T06:11:37.522Z,25.88
2022-12-15T06:14:04.438Z,24.33
2022-12-15T06:16:31.337Z,20.83
2022-12-15T06:19:01.118Z,17.70
2022-12-15T06:21:35.332Z,21.30
2022-12-15T06:24:03.809Z,20.02
2022-12-15T06:26:39.209Z,23.77
2022-12-15T06:29:08.565Z,22.75
2022-12-15T06:31:36.524Z,21.25
2022-12-15T06:34:08.643Z,20.73
2022-12-15T06:36:36.029Z,17.40
2022-12-15T06:39:05.061Z,19.60
2022-12-15T06:41:32.125Z,45.20
2022-12-15T06:43:59.507Z,60.10
2022-12-15T06:46:28.639Z,47.35
2022-12-15T06:48:55.876Z,31.83
2022-12-15T06:51:22.719Z,27.17
2022-12-15T06:53:50.785Z,33.30
2022-12-15T06:56:33.950Z,55.47
2022-12-15T06:59:03.339Z,37.55
2022-12-15T07:01:30.971Z,29.35
2022-12-15T07:04:00.132Z,26.25
2022-12-15T07:06:28.235Z,32.28
2022-12-15T07:08:56.652Z,24.67
2022-12-15T07:11:24.118Z,22.15
2022-12-15T07:13:52.909Z,31.38
2022-12-15T07:16:22.075Z,29.70
2022-12-15T07:18:48.877Z,28.35
2022-12-15T07:21:15.568Z,25.30
2022-12-15T07:23:58.275Z,25.45
2022-12-15T07:26:26.002Z,43.85
2022-12-15T07:28:53.543Z,30.35
2022-12-15T07:31:21.088Z,31.55
2022-12-15T07:33:48.351Z,30.00
2022-12-15T07:36:15.342Z,34.88
2022-12-15T07:38:42.082Z,27.48
2022-12-15T07:41:09.671Z,26.23
2022-12-15T07:43:37.453Z,27.58
2022-12-15T07:46:05.494Z,32.25
2022-12-15T07:48:33.172Z,26.33
2022-12-15T07:51:11.135Z,32.35
2022-12-15T07:53:39.902Z,24.63
2022-12-15T07:56:09.341Z,22.88
2022-12-15T07:58:37.386Z,21.25
2022-12-15T08:01:06.863Z,30.17
2022-12-15T08:03:35.794Z,20.92
2022-12-15T08:06:11.805Z,26.02
2022-12-15T08:08:39.227Z,26.13
2022-12-15T08:11:07.577Z,28.80
2022-12-15T08:16:21.911Z,28.10
2022-12-15T08:18:48.816Z,28.48
2022-12-15T08:21:16.099Z,30.77
2022-12-15T08:23:42.766Z,30.60
2022-12-15T08:26:15.006Z,32.10
2022-12-15T08:28:43.175Z,27.50
2022-12-15T08:31:12.961Z,28.85
2022-12-15T08:33:39.842Z,28.80
2022-12-15T08:36:09.587Z,29.90
2022-12-15T08:38:38.641Z,30.55
2022-12-15T08:41:19.140Z,27.58
2022-12-15T08:43:49.206Z,29.53
2022-12-15T08:46:17.932Z,27.47
2022-12-15T08:48:45.075Z,28.47
2022-12-15T08:51:12.230Z,24.83
2022-12-15T08:53:39.179Z,25.90
2022-12-15T08:56:12.196Z,34.37
2022-12-15T08:58:39.411Z,23.60
2022-12-15T09:01:09.345Z,29.23
2022-12-15T09:03:37.440Z,23.07
2022-12-15T09:06:12.181Z,23.80
2022-12-15T09:08:38.935Z,27.40
2022-12-15T09:11:05.838Z,31.80
2022-12-15T09:13:33.201Z,26.03
2022-12-15T09:16:11.575Z,27.27
2022-12-15T09:18:38.942Z,23.67
2022-12-15T09:21:07.456Z,23.00
2022-12-15T09:23:36.450Z,25.07
2022-12-15T09:26:14.745Z,25.40
2022-12-15T09:28:42.890Z,23.73
2022-12-15T09:31:28.750Z,24.63
2022-12-15T09:33:58.216Z,30.60
2022-12-15T09:36:26.252Z,22.70
2022-12-15T09:38:53.219Z,24.57
2022-12-15T09:41:29.830Z,24.07
2022-12-15T09:44:02.003Z,24.03
2022-12-15T09:46:50.714Z,27.80
2022-12-15T09:49:42.068Z,24.07
2022-12-15T09:52:14.667Z,25.47
2022-12-15T09:54:43.673Z,24.10
2022-12-15T09:57:23.647Z,23.57
2022-12-15T10:00:15.517Z,25.07
2022-12-15T10:03:10.240Z,22.50
2022-12-15T10:06:17.665Z,31.00
2022-12-15T10:08:50.705Z,22.27
2022-12-15T10:11:36.165Z,26.40
2022-12-15T10:14:12.165Z,25.93
2022-12-15T10:17:15.379Z,25.00
2022-12-15T10:19:56.676Z,25.97
2022-12-15T10:22:32.264Z,25.47
2022-12-15T10:25:14.056Z,27.93
2022-12-15T10:28:05.006Z,22.60
2022-12-15T10:30:32.914Z,25.53
2022-12-15T10:33:03.795Z,24.00
2022-12-15T10:35:36.091Z,26.63
2022-12-15T10:38:15.224Z,28.27
2022-12-15T10:40:55.507Z,25.13
2022-12-15T10:43:44.685Z,24.77
2022-12-15T10:46:28.698Z,27.80
2022-12-15T10:49:19.554Z,24.13
2022-12-15T10:51:57.145Z,29.10
2022-12-15T10:54:27.271Z,27.03
2022-12-15T10:56:56.768Z,29.57
2022-12-15T10:59:23.441Z,27.30
2022-12-15T11:01:51.402Z,27.27
2022-12-15T11:04:33.795Z,26.90
2022-12-15T11:07:03.042Z,26.13
2022-12-15T11:09:38.609Z,26.13
2022-12-15T11:12:43.560Z,26.97
2022-12-15T11:15:51.109Z,27.07
2022-12-15T11:18:29.623Z,30.13
2022-12-15T11:21:09.798Z,28.40
2022-12-15T11:23:48.747Z,36.30
2022-12-15T11:26:31.227Z,27.90
2022-12-15T11:29:18.005Z,27.80
2022-12-15T11:31:45.694Z,25.90
2022-12-15T11:34:18.325Z,27.70
2022-12-15T11:37:06.626Z,28.17
2022-12-15T11:40:00.877Z,27.43
2022-12-15T11:42:54.903Z,27.37
2022-12-15T11:45:52.424Z,29.03
2022-12-15T11:48:22.350Z,29.63
2022-12-15T11:51:13.942Z,29.00
2022-12-15T11:54:07.177Z,25.90
2022-12-15T11:56:39.115Z,31.17
2022-12-15T11:59:27.544Z,30.17
2022-12-15T12:02:03.756Z,29.87
2022-12-15T12:04:52.406Z,32.10
2022-12-15T12:08:14.386Z,31.77
2022-12-15T12:11:04.751Z,29.83
2022-12-15T12:14:02.577Z,34.70
2022-12-15T12:16:38.607Z,36.30
2022-12-15T12:19:14.189Z,34.17
2022-12-15T12:21:45.082Z,36.97
2022-12-15T12:24:29.715Z,39.70
2022-12-15T12:27:29.027Z,39.77
2022-12-15T12:30:11.903Z,36.83
2022-12-15T12:32:51.944Z,35.60
2022-12-15T12:38:29.638Z,36.90
2022-12-15T12:41:12.126Z,34.80
2022-12-15T12:43:50.156Z,38.07
2022-12-15T12:46:26.870Z,35.30
2022-12-15T12:49:33.366Z,33.90
2022-12-15T12:52:04.115Z,33.60
2022-12-15T12:54:36.843Z,30.30
2022-12-15T12:57:12.845Z,29.77
2022-12-15T12:59:43.566Z,31.90
2022-12-15T13:02:22.301Z,38.33
2022-12-15T13:04:58.627Z,34.40
2022-12-15T13:07:37.721Z,33.00
2022-12-15T13:10:19.712Z,38.03
2022-12-15T13:12:54.177Z,39.53
2022-12-15T13:15:27.241Z,41.63
2022-12-15T13:18:08.520Z,46.03
2022-12-15T13:20:37.457Z,41.80
2022-12-15T13:23:19.473Z,46.50
2022-12-15T13:26:06.369Z,45.20
2022-12-15T13:28:35.994Z,44.97
2022-12-15T13:31:18.598Z,45.77
2022-12-15T13:33:52.377Z,49.07
2022-12-15T13:36:37.733Z,49.20
2022-12-15T13:39:12.214Z,48.10
2022-12-15T13:42:00.268Z,46.17
2022-12-15T13:44:41.517Z,49.17
2022-12-15T13:47:28.604Z,46.37
2022-12-15T13:50:02.086Z,42.37
2022-12-15T13:53:16.646Z,38.80
2022-12-15T13:55:37.418Z,44.87
2022-12-15T13:58:14.551Z,45.23
2022-12-15T14:00:52.948Z,43.77
2022-12-15T14:03:20.427Z,34.43
2022-12-15T14:05:58.787Z,38.03
2022-12-15T14:08:28.507Z,36.07
2022-12-15T14:11:06.963Z,34.70
2022-12-15T14:13:46.858Z,38.93
2022-12-15T14:16:21.579Z,33.13
2022-12-15T14:19:14.807Z,34.30
2022-12-15T14:21:56.069Z,29.93
2022-12-15T14:24:38.493Z,33.77
2022-12-15T14:27:06.179Z,30.67
2022-12-15T14:29:32.970Z,32.53
2022-12-15T14:32:00.302Z,31.97
2022-12-15T14:34:30.104Z,29.33
2022-12-15T14:37:00.029Z,105.23
2022-12-15T14:39:33.557Z,33.27
2022-12-15T14:42:01.776Z,31.70
2022-12-15T14:44:43.883Z,30.23
2022-12-15T14:47:28.659Z,35.70
2022-12-15T14:49:58.077Z,32.57
2022-12-15T14:52:33.743Z,31.80
2022-12-15T14:55:03.349Z,31.57
2022-12-15T14:57:46.760Z,31.13
2022-12-15T15:00:27.035Z,32.43
2022-12-15T15:03:09.926Z,34.50
2022-12-15T15:05:57.448Z,33.53
2022-12-15T15:08:34.030Z,31.93
2022-12-15T15:11:23.916Z,35.07
2022-12-15T15:13:56.106Z,37.73
2022-12-15T15:16:23.430Z,38.10
2022-12-15T15:18:52.851Z,35.50
2022-12-15T15:21:26.051Z,34.50
2022-12-15T15:24:18.312Z,35.90
2022-12-15T15:26:45.046Z,38.25
2022-12-15T15:29:41.677Z,35.47
2022-12-15T15:32:17.255Z,33.45
2022-12-15T15:34:44.975Z,37.90
2022-12-15T15:37:24.626Z,32.77
2022-12-15T15:39:55.222Z,37.22
2022-12-15T15:42:25.473Z,36.43
2022-12-15T15:44:57.233Z,34.50
2022-12-15T15:47:27.477Z,33.75
2022-12-15T15:49:58.137Z,33.30
2022-12-15T15:52:24.979Z,36.87
2022-12-15T15:54:53.059Z,33.58
2022-12-15T15:57:19.847Z,39.43
2022-12-15T15:59:46.999Z,32.70
2022-12-15T16:02:14.888Z,35.42
2022-12-15T16:04:42.936Z,34.38
2022-12-15T16:07:24.002Z,34.03
2022-12-15T16:09:52.117Z,35.38
2022-12-15T16:12:43.398Z,31.47
2022-12-15T16:15:18.468Z,36.58
2022-12-15T16:17:45.616Z,31.47
2022-12-15T16:20:14.838Z,36.28
2022-12-15T16:22:44.021Z,34.65
2022-12-15T16:25:17.114Z,38.80
2022-12-15T16:27:44.107Z,33.90
2022-12-15T16:30:19.971Z,35.80
2022-12-15T16:32:46.711Z,35.73
2022-12-15T16:35:13.541Z,39.07
2022-12-15T16:37:46.429Z,40.93
2022-12-15T16:40:16.437Z,39.27
2022-12-15T16:42:47.079Z,40.03
2022-12-15T16:45:18.517Z,35.87
2022-12-15T16:47:45.792Z,37.43
2022-12-15T16:50:15.027Z,35.67
2022-12-15T16:52:45.920Z,31.33
2022-12-15T16:55:25.460Z,37.20
2022-12-15T16:57:55.136Z,31.07
2022-12-15T17:00:25.920Z,36.60
2022-12-15T17:02:53.660Z,32.13
2022-12-15T17:05:21.319Z,34.67
2022-12-15T17:07:53.215Z,31.97
2022-12-15T17:10:23.925Z,34.10
2022-12-15T17:12:52.275Z,35.30
2022-12-15T17:15:24.640Z,35.77
2022-12-15T17:17:52.328Z,29.80
2022-12-15T17:20:30.500Z,29.23
2022-12-15T17:23:10.400Z,32.70
2022-12-15T17:28:32.418Z,29.00
2022-12-15T17:31:00.679Z,29.77
2022-12-15T17:33:29.912Z,34.60
2022-12-15T17:36:15.091Z,26.60
2022-12-15T17:38:41.781Z,26.13
2022-12-15T17:41:29.064Z,26.07
2022-12-15T17:44:31.179Z,24.07
2022-12-15T17:46:46.308Z,26.00
2022-12-15T17:49:13.228Z,32.67
2022-12-15T17:51:40.798Z,26.90
2022-12-15T17:54:12.362Z,30.83
2022-12-15T17:56:39.157Z,30.03
2022-12-15T17:59:11.831Z,31.17
2022-12-15T18:01:38.606Z,26.93
2022-12-15T18:04:05.334Z,26.02
2022-12-15T18:06:32.692Z,32.67
2022-12-15T18:08:59.327Z,30.30
2022-12-15T18:11:26.154Z,25.93
2022-12-15T18:13:52.797Z,42.27
2022-12-15T18:16:19.520Z,28.30
2022-12-15T18:18:46.766Z,31.50
2022-12-15T18:21:15.356Z,31.05
2022-12-15T18:23:42.936Z,27.40
2022-12-15T18:26:13.179Z,29.02
2022-12-15T18:28:39.879Z,30.60
2022-12-15T18:31:20.130Z,26.83
2022-12-15T18:33:46.845Z,23.80
2022-12-15T18:36:13.702Z,28.67
2022-12-15T18:38:40.397Z,28.13
2022-12-15T18:41:12.828Z,23.92
2022-12-15T18:43:40.617Z,28.03
2022-12-15T18:46:12.002Z,29.97
2022-12-15T18:48:39.739Z,28.67
2022-12-15T18:51:23.930Z,31.20
2022-12-15T18:53:50.959Z,26.40
2022-12-15T18:56:21.385Z,30.45
2022-12-15T18:58:48.099Z,26.90
2022-12-15T19:01:15.408Z,27.80
2022-12-15T19:03:42.124Z,32.47
2022-12-15T19:06:25.650Z,29.83
2022-12-15T19:08:52.956Z,28.60
2022-12-15T19:11:30.756Z,29.07
2022-12-15T19:13:59.575Z,24.92
2022-12-15T19:16:27.030Z,26.88
2022-12-15T19:19:17.182Z,28.42
2022-12-15T19:22:02.948Z,32.08
2022-12-15T19:24:50.338Z,31.40
2022-12-15T19:27:20.096Z,38.08
2022-12-15T19:29:48.071Z,34.00
2022-12-15T19:32:14.987Z,31.88
2022-12-15T19:34:41.617Z,31.50
2022-12-15T19:37:21.090Z,32.23
2022-12-15T19:39:47.813Z,28.77
2022-12-15T19:42:19.404Z,34.75
2022-12-15T19:44:46.164Z,31.87
2022-12-15T19:47:13.633Z,29.50
2022-12-15T19:49:41.250Z,29.98
2022-12-15T19:52:16.216Z,33.43
2022-12-15T19:54:44.569Z,37.78
2022-12-15T19:57:16.781Z,29.80
2022-12-15T19:59:44.169Z,31.60
2022-12-15T20:02:18.696Z,33.20
2022-12-15T20:04:46.627Z,34.40
2022-12-15T20:07:28.348Z,38.22
2022-12-15T20:09:55.991Z,29.10
2022-12-15T20:12:22.702Z,27.80
2022-12-15T20:14:49.594Z,30.07
2022-12-15T20:17:16.241Z,34.00
2022-12-15T20:19:43.986Z,32.63
2022-12-15T20:22:15.921Z,31.50
2022-12-15T20:24:43.740Z,55.65
2022-12-15T20:27:15.888Z,31.53
2022-12-15T20:29:42.881Z,29.33
2022-12-15T20:32:20.613Z,29.70
2022-12-15T20:34:48.195Z,32.43
2022-12-15T20:37:29.419Z,34.45
2022-12-15T20:39:57.854Z,31.90
2022-12-15T20:42:24.937Z,27.10
2022-12-15T20:44:51.585Z,29.17
2022-12-15T20:47:26.441Z,29.97
2022-12-15T20:49:54.824Z,29.40
2022-12-15T20:52:24.656Z,31.73
2022-12-15T20:54:52.904Z,30.08
2022-12-15T20:57:19.781Z,33.28
2022-12-15T20:59:46.446Z,32.88
2022-12-15T21:02:19.367Z,34.60
2022-12-15T21:04:46.498Z,33.38
2022-12-15T21:07:13.313Z,30.50
2022-12-15T21:09:40.027Z,30.15
2022-12-15T21:12:20.974Z,29.48
2022-12-15T21:14:48.720Z,33.35
2022-12-15T21:17:18.537Z,32.42
2022-12-15T21:19:45.828Z,29.38
2022-12-15T21:22:27.175Z,29.60
2022-12-15T21:24:56.524Z,27.48
2022-12-15T21:27:23.348Z,27.30
2022-12-15T21:29:52.950Z,27.70
2022-12-15T21:32:20.679Z,28.80
2022-12-15T21:34:47.421Z,27.52
2022-12-15T21:37:32.086Z,29.88
2022-12-15T21:39:59.458Z,30.90
2022-12-15T21:42:26.772Z,27.80
2022-12-15T21:44:53.447Z,29.85
2022-12-15T21:47:48.129Z,26.83
2022-12-15T21:50:16.517Z,28.02
2022-12-15T21:52:44.857Z,30.40
2022-12-15T21:55:15.563Z,28.45
2022-12-15T21:57:42.319Z,29.55
2022-12-15T22:00:13.504Z,27.77
2022-12-15T22:02:40.479Z,26.20
2022-12-15T22:05:19.500Z,28.38
2022-12-15T22:07:46.407Z,26.30
2022-12-15T22:10:13.551Z,25.05
2022-12-15T22:12:42.348Z,23.88
2022-12-15T22:15:18.427Z,26.52
2022-12-15T22:17:45.369Z,24.02
2022-12-15T22:20:17.424Z,27.92
2022-12-15T22:22:45.203Z,24.63
2022-12-15T22:25:25.486Z,28.58
2022-12-15T22:27:52.503Z,24.85
2022-12-15T22:30:24.571Z,24.35
2022-12-15T22:32:51.359Z,24.40
2022-12-15T22:35:25.268Z,23.25
2022-12-15T22:37:56.194Z,21.70
2022-12-15T22:40:24.127Z,24.92
2022-12-15T22:42:54.907Z,25.00
2022-12-15T22:45:24.022Z,23.75
2022-12-15T22:47:53.169Z,24.40
2022-12-15T22:50:24.689Z,22.70
2022-12-15T22:52:52.777Z,25.42
2022-12-15T22:55:24.141Z,28.63
2022-12-15T22:57:59.052Z,27.33
2022-12-15T23:00:26.149Z,24.80
2022-12-15T23:02:52.955Z,25.83
2022-12-15T23:05:20.415Z,21.25
2022-12-15T23:07:47.496Z,27.58
2022-12-15T23:10:34.796Z,23.25
2022-12-15T23:13:01.441Z,25.45
2022-12-15T23:15:47.591Z,23.70
2022-12-15T23:18:14.391Z,23.05
2022-12-15T23:20:41.571Z,24.75
2022-12-15T23:23:09.780Z,22.90
2022-12-15T23:25:36.858Z,21.13
2022-12-15T23:28:03.731Z,24.02
2022-12-15T23:30:30.413Z,22.40
2022-12-15T23:32:57.133Z,20.58
2022-12-15T23:35:23.814Z,21.38
2022-12-15T23:37:50.816Z,26.17
2022-12-15T23:40:22.044Z,22.17
2022-12-15T23:42:49.881Z,26.58
2022-12-15T23:45:17.966Z,24.90
2022-12-15T23:47:44.732Z,21.90
2022-12-15T23:50:11.625Z,24.15
2022-12-15T23:52:38.319Z,24.85
2022-12-15T23:55:07.887Z,28.13
2022-12-15T23:57:35.446Z,28.50
